createdAt,value
2022-12-15T00:02:19.748Z,21.17
2022-12-15T00:05:05.267Z,22.90
2022-12-15T00:07:50.595Z,20.08
2022-12-15T00:10:35.901Z,19.35
2022-12-15T00:13:21.091Z,21.92
2022-12-15T00:16:06.542Z,21.35
2022-12-15T00:18:53.247Z,20.95
2022-12-15T00:21:38.688Z,21.92
2022-12-15T00:24:24.466Z,20.10
2022-12-15T00:27:09.851Z,20.52
2022-12-15T00:29:55.349Z,20.73
2022-12-15T00:32:41.030Z,19.73
2022-12-15T00:35:27.422Z,19.45
2022-12-15T00:38:12.644Z,20.95
2022-12-15T00:40:40.369Z,19.67
2022-12-15T00:43:11.803Z,19.80
2022-12-15T00:45:56.865Z,19.63
2022-12-15T00:48:24.402Z,18.58
2022-12-15T00:50:52.339Z,17.70
2022-12-15T00:53:38.151Z,21.65
2022-12-15T00:56:23.642Z,20.35
2022-12-15T00:59:09.137Z,19.75
2022-12-15T01:01:54.541Z,20.27
2022-12-15T01:04:39.956Z,19.60
2022-12-15T01:07:26.721Z,20.58
2022-12-15T01:10:12.058Z,18.83
2022-12-15T01:12:57.427Z,19.20
2022-12-15T01:15:42.841Z,22.65
2022-12-15T01:18:28.196Z,23.05
2022-12-15T01:20:56.646Z,21.65
2022-12-15T01:23:25.822Z,21.88
2022-12-15T01:25:54.434Z,21.65
2022-12-15T01:28:22.856Z,20.10
2022-12-15T01:30:50.553Z,20.75
2022-12-15T01:33:19.570Z,21.25
2022-12-15T01:35:56.435Z,22.05
2022-12-15T01:38:25.480Z,22.73
2022-12-15T01:40:54.337Z,19.88
2022-12-15T01:43:24.391Z,19.75
2022-12-15T01:46:02.457Z,22.27
2022-12-15T01:48:35.887Z,21.67
2022-12-15T01:51:10.360Z,21.42
2022-12-15T01:53:44.889Z,20.85
2022-12-15T01:56:13.248Z,21.55
2022-12-15T01:58:44.398Z,21.85
2022-12-15T02:01:12.349Z,18.73
2022-12-15T02:03:40.810Z,19.17
2022-12-15T02:06:09.673Z,21.77
2022-12-15T02:08:38.494Z,22.10
2022-12-15T02:11:22.765Z,19.77
2022-12-15T02:13:58.292Z,19.55
2022-12-15T02:16:35.585Z,21.83
2022-12-15T02:19:14.123Z,20.95
2022-12-15T02:21:47.756Z,20.75
2022-12-15T02:24:36.947Z,19.02
2022-12-15T02:27:20.543Z,21.00
2022-12-15T02:30:18.214Z,20.27
2022-12-15T02:32:54.222Z,21.13
2022-12-15T02:35:27.057Z,21.35
2022-12-15T02:40:22.216Z,19.20
2022-12-15T02:42:55.093Z,21.90
2022-12-15T02:49:19.213Z,21.15
2022-12-15T02:52:01.329Z,20.73
2022-12-15T02:54:42.930Z,21.10
2022-12-15T02:57:18.989Z,19.20
2022-12-15T02:59:55.461Z,21.23
2022-12-15T03:02:26.226Z,17.80
2022-12-15T03:04:56.159Z,21.40
2022-12-15T03:07:24.443Z,20.42
2022-12-15T03:09:53.002Z,20.63
2022-12-15T03:12:20.556Z,22.73
2022-12-15T03:14:48.117Z,18.15
2022-12-15T03:17:15.666Z,21.75
2022-12-15T03:19:43.201Z,20.70
2022-12-15T03:22:12.472Z,21.15
2022-12-15T03:24:40.111Z,20.58
2022-12-15T03:27:07.618Z,20.15
2022-12-15T03:29:35.240Z,20.58
2022-12-15T03:32:02.859Z,20.77
2022-12-15T03:34:30.536Z,20.67
2022-12-15T03:36:59.172Z,21.45
2022-12-15T03:39:28.176Z,18.88
2022-12-15T03:41:55.750Z,19.52
2022-12-15T03:44:23.309Z,21.05
2022-12-15T03:46:51.015Z,22.52
2022-12-15T03:49:18.542Z,21.92
2022-12-15T03:51:46.200Z,18.83
2022-12-15T03:54:13.930Z,21.83
2022-12-15T03:56:42.808Z,19.95
2022-12-15T03:59:10.318Z,22.05
2022-12-15T04:01:38.540Z,22.63
2022-12-15T04:04:06.487Z,20.55
2022-12-15T04:06:34.122Z,19.70
2022-12-15T04:09:01.686Z,21.35
2022-12-15T04:11:29.240Z,19.75
2022-12-15T04:13:58.162Z,21.50
2022-12-15T04:16:25.729Z,20.67
2022-12-15T04:19:13.280Z,23.35
2022-12-15T04:21:39.898Z,22.13
2022-12-15T04:24:25.373Z,22.02
2022-12-15T04:27:10.567Z,21.92
2022-12-15T04:29:57.218Z,22.92
2022-12-15T04:32:42.632Z,22.17
2022-12-15T04:35:28.756Z,21.80
2022-12-15T04:38:14.130Z,21.70
2022-12-15T04:40:59.394Z,23.45
2022-12-15T04:43:44.736Z,24.25
2022-12-15T04:46:31.412Z,23.67
2022-12-15T04:49:16.662Z,21.90
2022-12-15T04:52:02.182Z,20.80
2022-12-15T04:54:47.475Z,23.38
2022-12-15T04:57:32.809Z,22.35
2022-12-15T05:00:18.286Z,22.30
2022-12-15T05:03:04.961Z,24.50
2022-12-15T05:05:50.043Z,25.40
2022-12-15T05:08:35.441Z,24.10
2022-12-15T05:11:20.469Z,22.63
2022-12-15T05:14:05.865Z,23.48
2022-12-15T05:16:51.234Z,22.77
2022-12-15T05:19:37.813Z,22.08
2022-12-15T05:22:23.021Z,23.33
2022-12-15T05:25:08.375Z,21.83
2022-12-15T05:27:53.685Z,22.20
2022-12-15T05:30:39.029Z,22.02
2022-12-15T05:33:06.574Z,22.83
2022-12-15T05:35:35.465Z,22.52
2022-12-15T05:38:03.068Z,21.23
2022-12-15T05:40:30.613Z,22.92
2022-12-15T05:42:58.954Z,23.20
2022-12-15T05:45:26.784Z,22.80
2022-12-15T05:47:54.898Z,23.65
2022-12-15T05:50:23.452Z,26.08
2022-12-15T05:52:52.376Z,24.88
2022-12-15T05:55:20.247Z,23.27
2022-12-15T05:57:52.516Z,22.98
2022-12-15T06:00:20.607Z,24.05
2022-12-15T06:02:48.255Z,24.02
2022-12-15T06:05:18.145Z,23.13
2022-12-15T06:07:45.748Z,23.65
2022-12-15T06:10:14.947Z,23.73
2022-12-15T06:12:42.511Z,25.52
2022-12-15T06:15:10.915Z,28.02
2022-12-15T06:17:38.523Z,24.45
2022-12-15T06:20:07.183Z,23.58
2022-12-15T06:22:34.706Z,24.25
2022-12-15T06:25:02.269Z,24.80
2022-12-15T06:27:31.190Z,23.92
2022-12-15T06:29:58.742Z,23.52
2022-12-15T06:32:26.320Z,21.80
2022-12-15T06:34:53.858Z,22.30
2022-12-15T06:37:21.388Z,24.50
2022-12-15T06:39:48.938Z,24.08
2022-12-15T06:42:16.527Z,26.17
2022-12-15T06:44:45.376Z,25.55
2022-12-15T06:47:12.985Z,25.80
2022-12-15T06:49:40.589Z,22.80
2022-12-15T06:52:09.064Z,25.05
2022-12-15T06:54:36.582Z,24.27
2022-12-15T06:57:04.357Z,23.17
2022-12-15T06:59:31.903Z,23.42
2022-12-15T07:02:01.313Z,22.70
2022-12-15T07:04:29.070Z,24.70
2022-12-15T07:06:56.893Z,25.35
2022-12-15T07:09:26.097Z,23.33
2022-12-15T07:11:54.289Z,23.60
2022-12-15T07:14:23.070Z,24.45
2022-12-15T07:16:50.590Z,22.95
2022-12-15T07:19:19.503Z,24.23
2022-12-15T07:21:47.220Z,24.13
2022-12-15T07:24:15.130Z,23.60
2022-12-15T07:26:43.151Z,24.15
2022-12-15T07:29:11.798Z,26.58
2022-12-15T07:31:39.756Z,26.88
2022-12-15T07:34:07.401Z,28.52
2022-12-15T07:36:36.341Z,25.35
2022-12-15T07:39:05.318Z,24.63
2022-12-15T07:41:33.510Z,24.90
2022-12-15T07:44:02.280Z,26.05
2022-12-15T07:46:30.250Z,24.55
2022-12-15T07:48:57.908Z,25.08
2022-12-15T07:51:25.442Z,24.05
2022-12-15T07:53:54.315Z,24.73
2022-12-15T07:56:21.938Z,23.23
2022-12-15T07:58:50.075Z,29.40
2022-12-15T08:01:18.090Z,25.77
2022-12-15T08:03:45.972Z,21.17
2022-12-15T08:06:15.661Z,22.05
2022-12-15T08:08:50.370Z,20.67
2022-12-15T08:11:22.041Z,20.58
2022-12-15T08:14:10.527Z,21.08
2022-12-15T08:16:38.517Z,20.48
2022-12-15T08:19:08.026Z,23.38
2022-12-15T08:21:35.820Z,22.70
2022-12-15T08:24:04.105Z,23.88
2022-12-15T08:26:32.959Z,21.98
2022-12-15T08:29:32.010Z,22.30
2022-12-15T08:31:51.470Z,22.50
2022-12-15T08:34:19.160Z,21.77
2022-12-15T08:36:46.685Z,21.27
2022-12-15T08:39:14.194Z,22.70
2022-12-15T08:41:43.237Z,23.05
2022-12-15T08:44:10.817Z,23.52
2022-12-15T08:46:38.393Z,22.67
2022-12-15T08:49:06.155Z,23.33
2022-12-15T08:51:34.419Z,23.33
2022-12-15T08:54:02.306Z,22.73
2022-12-15T08:56:30.223Z,21.98
2022-12-15T08:59:00.788Z,22.65
2022-12-15T09:01:31.393Z,22.65
2022-12-15T09:03:59.451Z,22.38
2022-12-15T09:06:30.140Z,23.00
2022-12-15T09:08:58.983Z,21.17
2022-12-15T09:11:27.767Z,27.23
2022-12-15T09:13:55.648Z,21.10
2022-12-15T09:16:25.448Z,21.33
2022-12-15T09:18:54.959Z,22.20
2022-12-15T09:21:25.073Z,20.83
2022-12-15T09:23:54.325Z,20.70
2022-12-15T09:26:23.510Z,21.85
2022-12-15T09:28:51.899Z,21.90
2022-12-15T09:31:22.213Z,20.50
2022-12-15T09:33:53.881Z,21.30
2022-12-15T09:36:22.341Z,19.65
2022-12-15T09:38:50.313Z,19.30
2022-12-15T09:41:23.537Z,21.05
2022-12-15T09:43:56.726Z,21.40
2022-12-15T09:46:32.041Z,20.98
2022-12-15T09:49:05.492Z,21.67
2022-12-15T09:51:40.228Z,19.92
2022-12-15T09:54:11.079Z,21.73
2022-12-15T09:56:43.945Z,20.10
2022-12-15T09:59:34.015Z,20.08
2022-12-15T10:02:18.632Z,19.85
2022-12-15T10:04:55.677Z,19.20
2022-12-15T10:07:29.753Z,22.20
2022-12-15T10:09:57.630Z,20.50
2022-12-15T10:12:29.764Z,21.80
2022-12-15T10:15:13.477Z,21.48
2022-12-15T10:17:50.181Z,20.05
2022-12-15T10:20:21.449Z,20.48
2022-12-15T10:22:50.426Z,19.00
2022-12-15T10:25:27.591Z,21.52
2022-12-15T10:28:17.027Z,21.17
2022-12-15T10:30:53.124Z,20.00
2022-12-15T10:33:24.135Z,20.90
2022-12-15T10:35:54.446Z,20.38
2022-12-15T10:38:32.669Z,21.10
2022-12-15T10:41:02.737Z,18.73
2022-12-15T10:43:34.584Z,19.52
2022-12-15T10:46:05.513Z,18.98
2022-12-15T10:48:33.023Z,19.70
2022-12-15T10:51:18.235Z,20.80
2022-12-15T10:53:50.462Z,19.55
2022-12-15T10:56:24.829Z,20.33
2022-12-15T10:59:00.082Z,21.27
2022-12-15T11:01:29.763Z,20.45
2022-12-15T11:03:57.695Z,21.55
2022-12-15T11:06:29.231Z,19.95
2022-12-15T11:08:58.547Z,20.65
2022-12-15T11:11:47.051Z,21.48
2022-12-15T11:14:19.499Z,22.27
2022-12-15T11:16:50.985Z,21.42
2022-12-15T11:19:31.192Z,20.67
2022-12-15T11:22:04.542Z,19.83
2022-12-15T11:24:37.420Z,20.98
2022-12-15T11:29:50.137Z,18.33
2022-12-15T11:32:22.984Z,19.17
2022-12-15T11:34:50.823Z,18.63
2022-12-15T11:37:37.860Z,16.77
2022-12-15T11:40:24.749Z,19.27
2022-12-15T11:43:04.683Z,20.23
2022-12-15T11:45:42.615Z,21.75
2022-12-15T11:48:14.849Z,19.02
2022-12-15T11:50:54.198Z,19.20
2022-12-15T11:53:46.146Z,21.98
2022-12-15T11:56:23.904Z,21.50
2022-12-15T11:59:00.840Z,21.67
2022-12-15T12:01:55.418Z,19.35
2022-12-15T12:04:28.055Z,20.98
2022-12-15T12:07:09.488Z,21.52
2022-12-15T12:09:48.692Z,22.52
2022-12-15T12:12:26.954Z,23.65
2022-12-15T12:15:08.071Z,21.48
2022-12-15T12:17:42.182Z,22.10
2022-12-15T12:20:18.580Z,22.65
2022-12-15T12:22:54.473Z,18.95
2022-12-15T12:25:26.875Z,17.85
2022-12-15T12:27:57.044Z,18.08
2022-12-15T12:30:31.145Z,20.73
2022-12-15T12:33:07.403Z,22.45
2022-12-15T12:35:43.004Z,22.25
2022-12-15T12:38:12.031Z,23.17
2022-12-15T12:40:52.343Z,22.48
2022-12-15T12:43:31.684Z,22.02
2022-12-15T12:46:04.970Z,21.75
2022-12-15T12:48:37.591Z,21.60
2022-12-15T12:51:18.668Z,24.27
2022-12-15T12:53:46.183Z,22.05
2022-12-15T12:56:40.014Z,22.65
2022-12-15T12:59:37.358Z,19.60
2022-12-15T13:02:42.677Z,19.08
2022-12-15T13:05:26.021Z,18.13
2022-12-15T13:07:57.210Z,16.73
2022-12-15T13:10:26.674Z,14.63
2022-12-15T13:12:56.890Z,14.18
2022-12-15T13:15:36.014Z,13.43
2022-12-15T13:18:09.115Z,11.52
2022-12-15T13:20:37.978Z,11.45
2022-12-15T13:23:43.763Z,12.10
2022-12-15T13:26:14.785Z,10.80
2022-12-15T13:28:48.937Z,10.38
2022-12-15T13:31:27.465Z,10.68
2022-12-15T13:34:12.955Z,11.32
2022-12-15T13:36:54.452Z,11.20
2022-12-15T13:39:58.093Z,10.13
2022-12-15T13:45:48.915Z,11.38
2022-12-15T13:48:35.833Z,10.32
2022-12-15T13:51:11.411Z,12.25
2022-12-15T13:53:44.279Z,12.23
2022-12-15T13:56:38.652Z,12.02
2022-12-15T13:59:15.115Z,13.23
2022-12-15T14:01:52.009Z,13.98
2022-12-15T14:04:21.327Z,14.65
2022-12-15T14:06:51.004Z,13.15
2022-12-15T14:09:23.291Z,13.30
2022-12-15T14:11:53.526Z,14.80
2022-12-15T14:14:25.613Z,13.73
2022-12-15T14:17:01.140Z,15.00
2022-12-15T14:19:39.503Z,13.52
2022-12-15T14:22:27.068Z,16.08
2022-12-15T14:25:01.306Z,16.10
2022-12-15T14:27:30.636Z,15.32
2022-12-15T14:30:26.569Z,15.45
2022-12-15T14:33:07.171Z,16.65
2022-12-15T14:35:39.845Z,13.48
2022-12-15T14:38:13.437Z,13.93
2022-12-15T14:40:42.536Z,15.30
2022-12-15T14:43:22.699Z,14.75
2022-12-15T14:45:55.320Z,14.52
2022-12-15T14:51:18.782Z,14.38
2022-12-15T14:53:50.071Z,13.48
2022-12-15T14:56:30.412Z,13.13
2022-12-15T14:59:03.680Z,14.10
2022-12-15T15:03:14.538Z,13.43
2022-12-15T15:04:05.386Z,14.10
2022-12-15T15:06:36.744Z,13.88
2022-12-15T15:09:16.667Z,13.82
2022-12-15T15:11:44.653Z,15.02
2022-12-15T15:14:15.916Z,14.32
2022-12-15T15:16:44.107Z,15.38
2022-12-15T15:19:20.567Z,14.13
2022-12-15T15:21:48.777Z,14.88
2022-12-15T15:24:25.538Z,12.65
2022-12-15T15:26:53.671Z,12.60
2022-12-15T15:29:39.433Z,14.73
2022-12-15T15:32:15.097Z,12.20
2022-12-15T15:34:44.873Z,14.20
2022-12-15T15:37:18.779Z,13.77
2022-12-15T15:39:48.376Z,14.65
2022-12-15T15:42:16.236Z,14.05
2022-12-15T15:44:43.873Z,15.25
2022-12-15T15:47:21.046Z,16.30
2022-12-15T15:49:50.908Z,15.68
2022-12-15T15:52:18.574Z,15.98
2022-12-15T15:54:46.748Z,15.90
2022-12-15T15:57:16.065Z,15.75
2022-12-15T15:59:44.197Z,15.15
2022-12-15T16:02:13.298Z,15.55
2022-12-15T16:04:42.219Z,16.05
2022-12-15T16:07:21.443Z,15.60
2022-12-15T16:09:49.478Z,17.23
2022-12-15T16:12:27.695Z,17.50
2022-12-15T16:14:55.610Z,16.90
2022-12-15T16:17:23.934Z,16.67
2022-12-15T16:19:51.488Z,16.80
2022-12-15T16:22:22.371Z,19.05
2022-12-15T16:24:49.914Z,17.65
2022-12-15T16:27:17.521Z,16.83
2022-12-15T16:29:45.163Z,17.38
2022-12-15T16:32:13.306Z,18.48
2022-12-15T16:34:41.920Z,17.17
2022-12-15T16:37:25.916Z,17.98
2022-12-15T16:39:53.580Z,19.15
2022-12-15T16:42:21.095Z,17.48
2022-12-15T16:44:48.608Z,17.70
2022-12-15T16:47:16.319Z,17.52
2022-12-15T16:49:43.897Z,17.50
2022-12-15T16:52:19.343Z,17.25
2022-12-15T16:54:50.117Z,17.05
2022-12-15T16:57:18.403Z,16.00
2022-12-15T16:59:46.049Z,17.30
2022-12-15T17:02:29.206Z,16.90
2022-12-15T17:04:57.341Z,18.35
2022-12-15T17:07:27.524Z,17.83
2022-12-15T17:09:57.323Z,18.15
2022-12-15T17:12:24.890Z,17.92
2022-12-15T17:14:52.408Z,18.58
2022-12-15T17:17:21.054Z,17.65
2022-12-15T17:20:19.805Z,17.67
2022-12-15T17:22:37.606Z,17.95
2022-12-15T17:25:07.172Z,16.75
2022-12-15T17:27:34.755Z,17.38
2022-12-15T17:30:02.781Z,17.05
2022-12-15T17:32:30.503Z,16.83
2022-12-15T17:34:58.149Z,15.68
2022-12-15T17:37:28.070Z,15.60
2022-12-15T17:39:58.005Z,15.77
2022-12-15T17:42:27.152Z,14.85
2022-12-15T17:44:54.786Z,15.13
2022-12-15T17:47:24.165Z,17.27
2022-12-15T17:49:51.676Z,18.10
2022-12-15T17:52:26.773Z,17.90
2022-12-15T17:54:55.349Z,16.35
2022-12-15T17:57:22.970Z,15.05
2022-12-15T17:59:51.862Z,15.48
2022-12-15T18:02:20.117Z,15.45
2022-12-15T18:04:47.737Z,15.45
2022-12-15T18:07:19.143Z,16.17
2022-12-15T18:09:47.627Z,16.48
2022-12-15T18:12:23.424Z,15.48
2022-12-15T18:14:53.063Z,15.32
2022-12-15T18:17:21.389Z,16.27
2022-12-15T18:19:49.027Z,19.98
2022-12-15T18:22:22.058Z,21.70
2022-12-15T18:24:50.600Z,19.58
2022-12-15T18:27:21.970Z,18.13
2022-12-15T18:29:49.479Z,15.68
2022-12-15T18:32:18.935Z,15.20
2022-12-15T18:34:46.852Z,16.52
2022-12-15T18:37:17.277Z,14.90
2022-12-15T18:39:45.108Z,18.10
2022-12-15T18:42:15.475Z,17.30
2022-12-15T18:44:46.855Z,14.98
2022-12-15T18:47:18.521Z,16.63
2022-12-15T18:49:46.275Z,19.20
2022-12-15T18:52:17.664Z,16.77
2022-12-15T18:54:45.627Z,15.77
2022-12-15T18:57:26.395Z,18.00
2022-12-15T18:59:54.619Z,16.30
2022-12-15T19:02:23.656Z,15.98
2022-12-15T19:04:51.289Z,14.98
2022-12-15T19:07:18.830Z,16.88
2022-12-15T19:09:46.341Z,17.63
2022-12-15T19:12:21.547Z,15.77
2022-12-15T19:14:50.879Z,16.27
2022-12-15T19:17:52.323Z,17.02
2022-12-15T19:20:39.060Z,16.83
2022-12-15T19:23:07.663Z,15.95
2022-12-15T19:25:36.207Z,18.10
2022-12-15T19:28:03.870Z,17.20
2022-12-15T19:30:38.579Z,17.65
2022-12-15T19:33:09.383Z,17.95
2022-12-15T19:35:39.372Z,17.90
2022-12-15T19:38:08.153Z,18.10
2022-12-15T19:40:37.374Z,17.90
2022-12-15T19:43:05.187Z,17.10
2022-12-15T19:45:33.849Z,17.00
2022-12-15T19:48:01.416Z,18.85
2022-12-15T19:50:31.137Z,19.00
2022-12-15T19:53:01.925Z,18.40
2022-12-15T19:55:32.582Z,37.40
2022-12-15T19:58:00.826Z,23.83
2022-12-15T20:00:28.398Z,24.63
2022-12-15T20:02:56.644Z,18.30
2022-12-15T20:05:26.041Z,17.08
2022-12-15T20:07:54.812Z,15.45
2022-12-15T20:10:31.896Z,16.75
2022-12-15T20:13:00.500Z,14.30
2022-12-15T20:15:28.159Z,15.95
2022-12-15T20:17:57.424Z,14.75
2022-12-15T20:20:27.263Z,15.60
2022-12-15T20:22:57.650Z,16.05
2022-12-15T20:25:29.528Z,15.57
2022-12-15T20:28:00.227Z,14.27
2022-12-15T20:30:29.859Z,15.43
2022-12-15T20:32:57.503Z,17.35
2022-12-15T20:35:41.402Z,16.02
2022-12-15T20:38:37.668Z,14.57
2022-12-15T20:41:24.837Z,17.10
2022-12-15T20:43:59.768Z,16.52
2022-12-15T20:46:40.463Z,17.05
2022-12-15T20:49:16.221Z,18.15
2022-12-15T20:51:44.882Z,16.52
2022-12-15T20:54:18.906Z,17.58
2022-12-15T20:56:48.708Z,17.98
2022-12-15T20:59:17.166Z,19.45
2022-12-15T21:01:46.368Z,18.58
2022-12-15T21:04:24.900Z,18.05
2022-12-15T21:06:54.888Z,16.38
2022-12-15T21:09:26.785Z,18.13
2022-12-15T21:11:55.950Z,16.15
2022-12-15T21:14:25.273Z,17.23
2022-12-15T21:16:52.816Z,17.40
2022-12-15T21:19:22.052Z,18.70
2022-12-15T21:21:52.999Z,18.42
2022-12-15T21:24:25.864Z,18.30
2022-12-15T21:26:55.221Z,18.75
2022-12-15T21:29:24.852Z,22.77
2022-12-15T21:31:52.604Z,21.00
2022-12-15T21:34:20.235Z,19.13
2022-12-15T21:36:52.569Z,18.38
2022-12-15T21:39:25.756Z,19.42
2022-12-15T21:41:55.044Z,20.02
2022-12-15T21:44:22.846Z,18.40
2022-12-15T21:46:50.447Z,20.35
2022-12-15T21:49:18.700Z,19.33
2022-12-15T21:51:49.494Z,18.38
2022-12-15T21:54:20.408Z,18.38
2022-12-15T21:56:49.420Z,18.27
2022-12-15T21:59:21.091Z,17.83
2022-12-15T22:01:49.392Z,18.50
2022-12-15T22:04:20.195Z,15.55
2022-12-15T22:06:50.890Z,17.27
2022-12-15T22:09:19.404Z,17.42
2022-12-15T22:11:50.759Z,17.27
2022-12-15T22:14:26.386Z,17.00
2022-12-15T22:16:54.239Z,18.85
2022-12-15T22:19:22.767Z,17.98
2022-12-15T22:21:50.509Z,17.75
2022-12-15T22:24:19.793Z,19.48
2022-12-15T22:26:47.836Z,17.95
2022-12-15T22:29:18.506Z,18.33
2022-12-15T22:31:48.255Z,17.88
2022-12-15T22:34:17.991Z,19.42
2022-12-15T22:36:45.762Z,18.50
2022-12-15T22:39:14.742Z,18.63
2022-12-15T22:41:44.652Z,17.38
2022-12-15T22:44:17.772Z,17.08
2022-12-15T22:46:47.515Z,17.40
2022-12-15T22:49:18.524Z,17.42
2022-12-15T22:51:47.071Z,17.73
2022-12-15T22:54:21.577Z,18.65
2022-12-15T22:56:52.951Z,17.15
2022-12-15T22:59:28.069Z,18.20
2022-12-15T23:01:57.155Z,17.45
2022-12-15T23:04:25.276Z,16.27
2022-12-15T23:06:52.915Z,16.88
2022-12-15T23:09:22.680Z,15.82
2022-12-15T23:11:49.226Z,16.98
2022-12-15T23:14:18.861Z,16.35
2022-12-15T23:16:46.446Z,16.35
2022-12-15T23:19:23.850Z,16.75
2022-12-15T23:21:52.107Z,16.25
2022-12-15T23:24:19.870Z,16.13
2022-12-15T23:26:47.468Z,17.60
2022-12-15T23:29:15.154Z,17.25
2022-12-15T23:31:43.128Z,16.27
2022-12-15T23:34:11.399Z,15.55
2022-12-15T23:36:40.338Z,16.60
2022-12-15T23:39:07.892Z,17.25
2022-12-15T23:41:36.073Z,16.83
2022-12-15T23:44:03.654Z,15.90
2022-12-15T23:46:31.207Z,14.75
2022-12-15T23:49:00.139Z,15.75
2022-12-15T23:51:27.677Z,14.63
2022-12-15T23:53:56.556Z,15.43
2022-12-15T23:56:25.352Z,14.70
2022-12-15T23:58:56.183Z,14.75
